Time;durP1;ratioP1;P1;durP2;ratioP2;P2;SDS_P1;SDS_P2;PMS_P1;PMS_P2;Temp;Humidity;BMP_temperature;BMP_pressure;BME280_temperature;BME280_humidity;BME280_pressure;Samples;Min_cycle;Max_cycle;Signal;HPM_P1;HPM_P2
2022/01/27 00:06:01;;;;;;;22.53;10.57;;;;;;;16.19;37.44;102722.34;5049583;28;20098;-69
2022/01/27 00:08:38;;;;;;;24.97;9.70;;;;;;;15.13;39.63;102715.41;5049693;28;20440;-68
2022/01/27 00:11:09;;;;;;;22.47;9.60;;;;;;;14.19;41.28;102723.88;5064507;28;20082;-68
2022/01/27 00:13:43;;;;;;;25.45;10.40;;;;;;;15.69;37.84;102714.53;5053709;28;20369;-68
2022/01/27 00:16:18;;;;;;;21.77;10.20;;;;;;;17.10;35.77;102714.84;5068663;28;20051;-68
2022/01/27 00:18:46;;;;;;;29.40;10.97;;;;;;;15.44;39.02;102706.63;5059869;28;20056;-68
2022/01/27 00:21:13;;;;;;;29.53;10.40;;;;;;;14.78;39.68;102705.69;5068247;28;20067;-68
2022/01/27 00:23:40;;;;;;;25.20;11.00;;;;;;;15.00;39.38;102706.59;5066195;28;20518;-68
2022/01/27 00:26:06;;;;;;;25.00;10.10;;;;;;;15.91;38.02;102707.47;5067951;28;20040;-68
2022/01/27 00:28:31;;;;;;;29.47;10.87;;;;;;;14.66;40.51;102707.44;5057316;28;20029;-68
2022/01/27 00:30:57;;;;;;;30.07;10.37;;;;;;;14.71;40.49;102703.06;5048933;28;20101;-68
2022/01/27 00:33:22;;;;;;;23.90;9.57;;;;;;;13.86;42.29;102712.28;5048816;28;20112;-68
2022/01/27 00:35:47;;;;;;;23.67;10.43;;;;;;;15.06;39.67;102712.75;5049620;28;20508;-68
2022/01/27 00:38:13;;;;;;;26.70;10.63;;;;;;;15.21;38.77;102709.28;5054826;28;20442;-69
2022/01/27 00:40:38;;;;;;;25.70;9.83;;;;;;;15.60;39.21;102704.84;5084643;28;20024;-68
2022/01/27 00:43:04;;;;;;;22.13;9.70;;;;;;;15.75;38.46;102684.63;5067745;28;20052;-68
2022/01/27 00:45:31;;;;;;;25.57;9.97;;;;;;;15.66;38.94;102690.81;5057875;28;20036;-68
2022/01/27 00:48:00;;;;;;;25.83;10.27;;;;;;;16.07;38.15;102692.50;5049520;28;20021;-68
2022/01/27 00:50:26;;;;;;;27.33;9.90;;;;;;;16.73;36.08;102678.09;5048425;28;20059;-68
2022/01/27 00:52:54;;;;;;;24.37;10.50;;;;;;;15.56;39.14;102694.31;5066490;28;20048;-68
2022/01/27 00:55:23;;;;;;;30.10;9.60;;;;;;;16.15;37.78;102704.75;5067839;28;20074;-69
2022/01/27 01:00:23;;;;;;;29.50;9.70;;;;;;;15.27;39.21;102713.66;5063886;28;20040;-68
2022/01/27 01:03:01;;;;;;;26.27;10.48;;;;;;;16.04;37.38;102686.34;5065891;28;20510;-68
2022/01/27 01:08:11;;;;;;;23.43;9.20;;;;;;;14.08;39.99;102700.16;5049258;28;20048;-68
2022/01/27 01:15:45;;;;;;;25.37;9.13;;;;;;;15.05;38.46;102668.88;5069382;28;20024;-68
2022/01/27 01:29:52;;;;;;;24.40;9.50;;;;;;;15.57;38.03;102643.38;5032681;28;20076;-68
2022/01/27 01:34:43;;;;;;;24.43;8.73;;;;;;;15.18;38.87;102639.91;5052124;28;20025;-68
2022/01/27 01:37:09;;;;;;;21.83;9.35;;;;;;;15.59;37.64;102631.06;5051122;28;20504;-67
2022/01/27 01:39:36;;;;;;;24.50;10.20;;;;;;;14.88;39.29;102617.97;5066936;28;20035;-68
2022/01/27 01:42:05;;;;;;;25.67;10.37;;;;;;;15.92;37.33;102610.75;5052919;28;20116;-67
2022/01/27 01:44:31;;;;;;;23.23;10.50;;;;;;;15.08;38.76;102618.84;5051185;28;20123;-67
2022/01/27 01:46:58;;;;;;;25.23;9.63;;;;;;;16.13;36.53;102606.28;5050580;28;20183;-68
2022/01/27 01:49:26;;;;;;;25.80;9.80;;;;;;;13.74;41.63;102605.38;5066887;28;20025;-68
2022/01/27 01:51:53;;;;;;;30.07;10.03;;;;;;;15.66;38.24;102603.81;5065395;28;20024;-67
2022/01/27 01:54:19;;;;;;;28.07;11.03;;;;;;;16.00;37.66;102605.47;5052567;28;20040;-67
2022/01/27 01:56:45;;;;;;;27.53;9.97;;;;;;;15.68;37.21;102599.41;5067186;28;20033;-67
2022/01/27 01:59:10;;;;;;;24.83;10.90;;;;;;;14.85;39.26;102615.31;5065087;28;20596;-67
2022/01/27 02:01:37;;;;;;;26.73;10.60;;;;;;;15.91;37.26;102614.31;5070138;28;20818;-68
2022/01/27 02:04:07;;;;;;;23.07;10.07;;;;;;;14.68;39.33;102618.81;5058054;28;20104;-68
2022/01/27 02:06:39;;;;;;;23.63;10.37;;;;;;;15.77;37.92;102609.94;5057507;28;20025;-67
2022/01/27 02:19:44;;;;;;;25.67;10.07;;;;;;;15.12;39.85;102587.25;5051321;28;20079;-67
2022/01/27 02:22:09;;;;;;;25.37;9.60;;;;;;;15.30;39.14;102586.34;5056010;28;20064;-68
2022/01/27 02:24:37;;;;;;;25.53;10.80;;;;;;;15.27;39.12;102600.38;5050996;28;20041;-67
2022/01/27 02:27:04;;;;;;;24.67;9.60;;;;;;;14.23;41.68;102594.13;5050331;28;20028;-67
2022/01/27 02:29:29;;;;;;;30.40;10.97;;;;;;;15.32;39.96;102596.00;5048883;28;20071;-67
2022/01/27 02:31:57;;;;;;;22.70;9.80;;;;;;;14.34;41.90;102592.44;5071800;28;20124;-68
2022/01/27 02:34:22;;;;;;;26.53;9.63;;;;;;;13.61;43.35;102593.88;5055406;28;20029;-67
2022/01/27 02:36:48;;;;;;;27.03;10.40;;;;;;;15.55;39.63;102592.41;5068569;28;20631;-68
2022/01/27 02:39:13;;;;;;;28.33;9.07;;;;;;;14.90;40.24;102597.78;5069094;28;20541;-69
2022/01/27 02:41:46;;;;;;;27.10;11.00;;;;;;;15.85;38.36;102580.03;5056767;28;20035;-67
2022/01/27 02:44:29;;;;;;;32.22;10.43;;;;;;;15.10;41.20;102601.28;5049189;28;20435;-69
2022/01/27 02:46:55;;;;;;;24.87;10.23;;;;;;;15.25;40.31;102594.25;5054764;28;20036;-68
2022/01/27 02:49:20;;;;;;;28.07;10.57;;;;;;;14.72;41.56;102589.00;5064569;28;20029;-68
2022/01/27 02:51:46;;;;;;;26.67;9.43;;;;;;;14.23;42.27;102591.50;5051832;28;20036;-70
2022/01/27 02:54:11;;;;;;;27.00;10.13;;;;;;;15.64;39.54;102571.31;5069999;28;20028;-70
2022/01/27 02:56:43;;;;;;;28.40;9.00;;;;;;;15.19;40.42;102573.19;5060564;28;20493;-70
2022/01/27 02:59:09;;;;;;;26.17;9.85;;;;;;;14.76;40.60;102569.69;5056723;28;20033;-70
2022/01/27 03:01:34;;;;;;;29.60;9.60;;;;;;;13.74;44.36;102566.81;5051197;28;20034;-69
2022/01/27 03:04:00;;;;;;;25.87;9.40;;;;;;;16.27;38.70;102556.97;5050787;28;20611;-69
2022/01/27 03:06:25;;;;;;;27.20;10.07;;;;;;;15.51;40.06;102537.97;5055029;28;20031;-73
2022/01/27 03:08:51;;;;;;;25.33;9.97;;;;;;;15.29;40.56;102529.25;5068169;28;20028;-69
2022/01/27 03:11:32;;;;;;;28.47;9.67;;;;;;;14.53;42.77;102524.03;5049523;28;20039;-70
2022/01/27 03:13:57;;;;;;;25.23;10.60;;;;;;;14.61;41.35;102510.91;5050043;28;20051;-67
2022/01/27 03:16:22;;;;;;;29.20;9.77;;;;;;;14.62;42.06;102518.78;5052521;28;20441;-69
2022/01/27 03:18:48;;;;;;;26.97;10.20;;;;;;;15.20;40.68;102511.72;5067933;28;20124;-69
2022/01/27 03:21:15;;;;;;;26.57;10.10;;;;;;;15.02;41.39;102508.25;5049197;28;20087;-69
2022/01/27 03:23:41;;;;;;;28.13;10.93;;;;;;;14.39;42.39;102511.75;5048908;28;20033;-70
2022/01/27 03:26:06;;;;;;;34.63;10.83;;;;;;;14.75;41.88;102515.31;5049605;28;20104;-70
2022/01/27 03:28:31;;;;;;;27.60;9.67;;;;;;;15.40;40.54;102494.09;5052043;28;20029;-68
2022/01/27 03:30:57;;;;;;;25.43;10.23;;;;;;;15.40;40.15;102486.19;5049476;28;20083;-69
2022/01/27 03:33:23;;;;;;;19.13;9.07;;;;;;;15.44;40.28;102487.03;5084107;28;20021;-70
2022/01/27 03:35:48;;;;;;;26.27;10.83;;;;;;;15.18;40.56;102492.41;5070246;28;20044;-70
2022/01/27 03:38:13;;;;;;;30.27;10.40;;;;;;;14.96;41.59;102492.47;5050806;28;20033;-69
2022/01/27 03:40:39;;;;;;;27.50;10.37;;;;;;;15.78;39.24;102485.13;5049171;28;20036;-70
2022/01/27 03:43:06;;;;;;;30.00;9.97;;;;;;;14.85;41.31;102484.59;5048724;28;20025;-70
2022/01/27 03:45:32;;;;;;;23.57;10.93;;;;;;;15.63;39.85;102479.94;5061296;28;20041;-69
2022/01/27 03:47:58;;;;;;;25.30;10.33;;;;;;;15.40;40.01;102483.56;5056889;28;20032;-69
2022/01/27 03:50:24;;;;;;;27.77;10.10;;;;;;;15.64;39.97;102476.41;5048485;28;20218;-70
2022/01/27 03:52:49;;;;;;;36.80;11.13;;;;;;;14.67;41.49;102490.75;5069406;28;20036;-70
2022/01/27 03:55:14;;;;;;;32.30;10.47;;;;;;;15.54;40.38;102467.69;5069448;28;20073;-69
2022/01/27 03:57:40;;;;;;;25.27;9.90;;;;;;;15.46;40.69;102460.72;5057392;28;20181;-69
2022/01/27 04:00:08;;;;;;;36.07;11.47;;;;;;;14.91;41.90;102463.50;5051497;28;20067;-69
2022/01/27 04:02:37;;;;;;;31.20;11.23;;;;;;;14.52;42.55;102464.41;5067688;28;20502;-69
2022/01/27 04:05:03;;;;;;;29.70;11.40;;;;;;;14.84;42.33;102451.25;5068161;28;20028;-69
2022/01/27 04:07:28;;;;;;;33.43;10.00;;;;;;;15.18;41.27;102455.53;5048127;28;20040;-69
2022/01/27 04:09:53;;;;;;;27.90;11.10;;;;;;;15.83;40.05;102450.00;5047290;28;20112;-69
2022/01/27 04:12:19;;;;;;;27.10;11.00;;;;;;;16.10;39.39;102449.78;5060484;28;20077;-70
2022/01/27 04:14:44;;;;;;;29.87;11.07;;;;;;;14.84;42.01;102447.75;5050143;28;20409;-69
2022/01/27 04:17:10;;;;;;;27.63;10.00;;;;;;;15.35;41.16;102439.66;5080004;28;20075;-69
2022/01/27 04:19:35;;;;;;;28.73;10.20;;;;;;;14.35;43.75;102453.88;5053456;28;20136;-70
2022/01/27 04:22:01;;;;;;;21.33;9.10;;;;;;;14.69;42.76;102456.53;5061523;28;20087;-70
2022/01/27 04:24:26;;;;;;;30.27;10.27;;;;;;;15.55;40.88;102445.72;5069192;28;20085;-70
2022/01/27 04:27:00;;;;;;;28.97;9.10;;;;;;;15.41;41.78;102437.00;5057246;28;20025;-69
2022/01/27 04:29:26;;;;;;;27.97;9.23;;;;;;;15.77;40.63;102424.47;5048668;28;20048;-69
2022/01/27 04:31:52;;;;;;;25.60;8.00;;;;;;;15.68;40.69;102433.34;5048020;28;20392;-69
2022/01/27 04:34:18;;;;;;;25.33;9.23;;;;;;;15.21;42.26;102440.59;5049317;28;20032;-69
2022/01/27 04:36:45;;;;;;;26.73;8.37;;;;;;;15.44;41.39;102427.31;5073199;28;20028;-69
2022/01/27 04:41:49;;;;;;;18.20;7.07;;;;;;;14.56;43.83;102429.31;5052554;28;20037;-70
2022/01/27 04:44:40;;;;;;;23.87;8.07;;;;;;;14.92;43.44;102419.63;5067458;28;20073;-69
2022/01/27 04:47:11;;;;;;;40.90;8.67;;;;;;;14.70;44.59;102417.06;5065620;28;20043;-70
2022/01/27 04:49:37;;;;;;;21.27;7.00;;;;;;;15.05;43.75;102408.16;5048085;28;20049;-70
2022/01/27 04:52:04;;;;;;;18.80;6.77;;;;;;;15.13;43.21;102407.28;5053204;28;20093;-70
2022/01/27 04:54:35;;;;;;;20.57;8.00;;;;;;;15.22;43.08;102404.59;5047859;28;20021;-69
2022/01/27 04:57:03;;;;;;;19.17;7.00;;;;;;;15.64;42.62;102413.16;5063384;28;20806;-70
2022/01/27 04:59:33;;;;;;;23.80;7.20;;;;;;;16.02;42.11;102404.16;5067555;28;20033;-68
2022/01/27 05:02:06;;;;;;;16.80;6.63;;;;;;;15.07;43.38;102406.41;5055635;28;20446;-68
2022/01/27 05:04:35;;;;;;;;;;;;;;;16.33;41.09;102414.41;5052774;28;20036;-68
2022/01/27 05:07:01;;;;;;;22.60;7.00;;;;;;;17.02;39.72;102398.78;5069362;28;19916;-68
2022/01/27 05:09:26;;;;;;;27.90;7.40;;;;;;;16.37;41.18;102400.31;5051619;28;20476;-67
2022/01/27 05:12:00;;;;;;;25.30;7.23;;;;;;;16.18;41.14;102404.88;5066593;28;20392;-67
2022/01/27 05:14:26;;;;;;;20.37;6.63;;;;;;;15.39;42.29;102402.75;5052773;28;20043;-68
2022/01/27 05:16:53;;;;;;;20.07;6.23;;;;;;;14.70;44.07;102401.25;5073148;28;20028;-68
2022/01/27 05:19:18;;;;;;;19.70;6.20;;;;;;;15.37;43.68;102399.25;5069369;28;20115;-68
2022/01/27 05:21:44;;;;;;;13.87;5.40;;;;;;;15.44;42.30;102394.81;5055659;28;20124;-68
2022/01/27 05:24:10;;;;;;;19.67;6.77;;;;;;;15.71;43.36;102388.50;5054806;28;20040;-69
2022/01/27 05:26:38;;;;;;;18.30;6.70;;;;;;;15.47;43.41;102392.19;5070457;28;20491;-70
2022/01/27 05:29:05;;;;;;;26.27;7.03;;;;;;;15.24;44.05;102392.31;5071185;28;20024;-70
2022/01/27 05:31:30;;;;;;;18.67;6.13;;;;;;;15.34;44.70;102390.50;5070451;28;20024;-69
2022/01/27 05:33:56;;;;;;;18.23;7.40;;;;;;;15.81;43.12;102391.09;5070508;28;20035;-70
2022/01/27 05:36:22;;;;;;;23.87;6.13;;;;;;;16.32;42.35;102378.41;5069086;28;20040;-70
2022/01/27 05:38:47;;;;;;;25.50;7.37;;;;;;;16.25;41.73;102374.03;5070421;28;20383;-68
2022/01/27 05:41:14;;;;;;;20.90;7.30;;;;;;;14.98;44.50;102380.13;5069760;28;20452;-67
2022/01/27 05:43:40;;;;;;;19.47;5.80;;;;;;;15.13;44.00;102373.03;5053230;28;20393;-68
2022/01/27 05:46:06;;;;;;;20.83;6.17;;;;;;;16.10;42.44;102375.94;5052070;28;20057;-71
2022/01/27 05:48:31;;;;;;;17.10;5.53;;;;;;;16.03;43.14;102379.53;5050433;28;20049;-70
2022/01/27 05:50:57;;;;;;;26.03;7.93;;;;;;;15.64;43.24;102367.50;5078403;28;20035;-69
2022/01/27 05:53:23;;;;;;;14.67;5.67;;;;;;;16.15;41.94;102367.13;5056678;28;20037;-70
2022/01/27 05:55:48;;;;;;;11.43;4.77;;;;;;;15.19;44.67;102359.84;5059401;28;20551;-70
2022/01/27 05:58:14;;;;;;;19.93;6.57;;;;;;;16.05;42.37;102361.91;5070805;28;20115;-69
2022/01/27 06:00:39;;;;;;;18.50;6.90;;;;;;;15.90;42.74;102364.69;5055327;28;20029;-69
2022/01/27 06:03:05;;;;;;;23.47;7.77;;;;;;;15.56;43.85;102362.25;5062326;28;20032;-70
2022/01/27 06:05:30;;;;;;;18.57;7.17;;;;;;;15.16;45.18;102351.94;5056016;28;20037;-69
2022/01/27 06:07:55;;;;;;;21.53;7.27;;;;;;;16.99;41.00;102341.56;5067912;28;20500;-69
2022/01/27 06:10:21;;;;;;;19.20;6.27;;;;;;;15.67;44.12;102349.00;5070691;28;20064;-69
2022/01/27 06:12:56;;;;;;;18.63;6.90;;;;;;;16.36;42.01;102356.38;5070427;28;20557;-69
2022/01/27 06:15:24;;;;;;;21.13;6.30;;;;;;;16.84;41.47;102349.66;5067175;28;20056;-69
2022/01/27 06:17:49;;;;;;;16.37;6.10;;;;;;;16.75;41.60;102338.31;5058098;28;20047;-69
2022/01/27 06:20:17;;;;;;;18.50;6.53;;;;;;;16.37;42.03;102344.91;5059148;28;20495;-69
2022/01/27 06:22:42;;;;;;;22.37;6.70;;;;;;;15.60;44.13;102342.91;5049593;28;20556;-69
2022/01/27 06:25:09;;;;;;;30.13;6.27;;;;;;;16.40;43.06;102333.44;5051226;28;20033;-69
2022/01/27 06:27:34;;;;;;;23.07;6.97;;;;;;;15.72;44.54;102337.53;5056329;28;20028;-69
2022/01/27 06:30:01;;;;;;;14.67;5.47;;;;;;;16.34;42.61;102326.47;5061508;28;20412;-69
2022/01/27 06:32:26;;;;;;;22.40;6.13;;;;;;;15.36;44.88;102328.13;5050059;28;20029;-69
2022/01/27 06:34:52;;;;;;;17.57;5.70;;;;;;;16.17;43.38;102324.00;5059753;28;20028;-69
2022/01/27 06:37:17;;;;;;;20.97;6.87;;;;;;;16.62;42.30;102324.41;5066671;28;20100;-69
2022/01/27 06:39:43;;;;;;;22.33;5.50;;;;;;;15.59;43.95;102333.22;5049844;28;20029;-69
2022/01/27 06:42:08;;;;;;;22.80;6.33;;;;;;;15.99;43.63;102314.50;5049519;28;20115;-68
2022/01/27 06:44:35;;;;;;;22.73;7.03;;;;;;;17.23;41.08;102328.97;5050893;28;20096;-69
2022/01/27 06:47:01;;;;;;;22.03;5.43;;;;;;;16.94;42.09;102333.72;5049789;28;20032;-69
2022/01/27 06:49:26;;;;;;;19.93;6.27;;;;;;;18.00;39.77;102319.84;5060383;28;20032;-69
2022/01/27 06:51:52;;;;;;;23.47;6.93;;;;;;;18.32;38.93;102323.66;5049353;28;20059;-69
2022/01/27 06:54:18;;;;;;;20.70;6.33;;;;;;;15.61;44.78;102342.03;5050798;28;20529;-69
2022/01/27 06:56:44;;;;;;;16.73;6.10;;;;;;;16.44;42.91;102343.97;5067623;28;20032;-69
2022/01/27 06:59:10;;;;;;;14.70;6.03;;;;;;;16.98;41.83;102345.13;5065428;28;20491;-69
2022/01/27 07:01:36;;;;;;;25.00;6.20;;;;;;;16.17;43.85;102345.13;5067011;28;20075;-69
2022/01/27 07:04:01;;;;;;;21.07;6.73;;;;;;;14.59;47.42;102339.88;5067992;28;20040;-69
2022/01/27 07:06:27;;;;;;;18.73;5.57;;;;;;;16.07;44.32;102349.59;5069158;28;20426;-69
2022/01/27 07:08:53;;;;;;;14.77;5.90;;;;;;;15.96;44.21;102361.97;5064720;28;20032;-69
2022/01/27 07:11:18;;;;;;;23.13;5.93;;;;;;;16.36;43.71;102356.38;5047898;28;20079;-69
2022/01/27 07:13:44;;;;;;;22.03;6.50;;;;;;;16.82;43.59;102360.25;5051619;28;20047;-69
2022/01/27 07:16:10;;;;;;;13.20;6.20;;;;;;;16.48;44.25;102354.47;5050354;28;20452;-69
2022/01/27 07:18:36;;;;;;;17.63;5.70;;;;;;;15.66;46.19;102360.44;5058674;28;20460;-69
2022/01/27 07:21:03;;;;;;;19.03;5.80;;;;;;;15.04;47.82;102369.56;5049684;28;20045;-69
2022/01/27 07:23:29;;;;;;;19.70;6.20;;;;;;;15.10;49.75;102366.91;5050842;28;20111;-69
2022/01/27 07:25:54;;;;;;;18.73;5.83;;;;;;;14.56;49.52;102366.16;5064391;28;20120;-69
2022/01/27 07:28:20;;;;;;;26.47;7.07;;;;;;;16.17;46.42;102360.03;5061382;28;20029;-70
2022/01/27 07:30:45;;;;;;;20.60;7.50;;;;;;;15.98;47.12;102364.59;5066429;28;20051;-69
2022/01/27 07:33:11;;;;;;;22.23;5.63;;;;;;;16.26;46.95;102370.53;5063920;28;20032;-70
2022/01/27 07:35:36;;;;;;;15.27;5.47;;;;;;;15.91;48.39;102374.34;5068434;28;20115;-69
2022/01/27 07:38:01;;;;;;;18.70;6.63;;;;;;;17.57;43.84;102365.44;5060487;28;20086;-69
2022/01/27 07:40:28;;;;;;;15.00;6.27;;;;;;;16.94;46.11;102361.91;5048550;28;20033;-70
2022/01/27 07:42:54;;;;;;;17.50;6.87;;;;;;;15.82;49.11;102367.38;5053700;28;20028;-69
2022/01/27 07:45:19;;;;;;;18.77;5.90;;;;;;;15.76;48.76;102370.91;5054026;28;20430;-69
2022/01/27 07:47:44;;;;;;;18.00;6.33;;;;;;;16.50;47.02;102369.41;5069135;28;20027;-69
2022/01/27 07:50:09;;;;;;;20.37;7.53;;;;;;;16.25;46.48;102363.50;5050839;28;20037;-69
2022/01/27 07:52:35;;;;;;;29.20;6.60;;;;;;;16.26;47.95;102365.25;5058449;28;20039;-69
2022/01/27 07:55:00;;;;;;;17.10;6.17;;;;;;;16.66;46.89;102370.09;5081869;28;20506;-69
2022/01/27 07:57:25;;;;;;;15.73;5.90;;;;;;;16.33;46.85;102366.06;5059121;28;20116;-67
2022/01/27 07:59:51;;;;;;;13.83;5.43;;;;;;;16.77;45.93;102372.63;5051799;28;20453;-67
2022/01/27 08:02:16;;;;;;;31.30;6.07;;;;;;;16.59;47.65;102369.28;5048250;28;20021;-68
2022/01/27 08:04:42;;;;;;;17.50;6.17;;;;;;;16.43;49.16;102373.88;5064090;28;20076;-67
2022/01/27 08:07:14;;;;;;;19.63;7.17;;;;;;;16.44;48.24;102370.34;5062879;28;20025;-68
2022/01/27 08:09:39;;;;;;;17.90;5.90;;;;;;;15.98;48.89;102386.59;5050269;28;20475;-68
2022/01/27 08:12:05;;;;;;;10.97;5.27;;;;;;;15.58;50.80;102384.22;5052701;28;20505;-68
2022/01/27 08:14:30;;;;;;;20.93;5.87;;;;;;;15.97;49.12;102378.69;5066188;28;20024;-68
2022/01/27 08:16:56;;;;;;;16.57;5.30;;;;;;;15.68;50.65;102372.72;5051711;28;20361;-67
2022/01/27 08:19:21;;;;;;;14.47;5.40;;;;;;;15.04;52.36;102379.22;5049188;28;20439;-67
2022/01/27 08:21:46;;;;;;;15.10;6.07;;;;;;;15.12;52.47;102376.56;5065262;28;20056;-67
2022/01/27 08:24:12;;;;;;;11.53;4.53;;;;;;;15.93;49.16;102394.53;5067426;28;20060;-67
2022/01/27 08:26:44;;;;;;;14.77;6.43;;;;;;;15.84;49.63;102372.63;5054229;28;20155;-68
2022/01/27 08:31:43;;;;;;;13.50;5.40;;;;;;;17.34;46.05;102369.31;5062236;28;20076;-67
2022/01/27 08:34:14;;;;;;;13.00;5.00;;;;;;;15.77;50.56;102377.94;5068871;28;20439;-68
2022/01/27 08:36:41;;;;;;;17.83;6.27;;;;;;;16.68;48.72;102373.63;5054446;28;20016;-67
2022/01/27 08:39:06;;;;;;;14.83;5.30;;;;;;;16.31;49.06;102379.28;5068349;28;20040;-67
2022/01/27 08:41:32;;;;;;;11.63;5.67;;;;;;;15.41;50.51;102377.28;5053491;28;20158;-67
2022/01/27 08:43:57;;;;;;;15.07;5.10;;;;;;;15.96;50.46;102372.53;5060902;28;20040;-67
2022/01/27 08:46:22;;;;;;;15.67;6.07;;;;;;;17.76;45.71;102374.84;5055204;28;20122;-67
2022/01/27 08:48:48;;;;;;;12.87;4.87;;;;;;;15.51;52.45;102364.03;5069249;28;20549;-67
2022/01/27 08:51:14;;;;;;;12.03;5.90;;;;;;;16.60;48.74;102360.50;5050970;28;20477;-67
2022/01/27 08:53:41;;;;;;;18.17;6.07;;;;;;;15.49;51.62;102374.59;5053981;28;20121;-67
2022/01/27 08:56:06;;;;;;;18.70;5.10;;;;;;;14.53;56.72;102381.97;5088549;28;20016;-67
2022/01/27 08:58:34;;;;;;;15.07;4.80;;;;;;;15.14;54.75;102374.78;5070916;28;20384;-67
2022/01/27 09:01:01;;;;;;;27.00;6.00;;;;;;;15.81;52.79;102377.94;5072780;28;20017;-67
2022/01/27 09:03:28;;;;;;;22.93;6.43;;;;;;;15.27;53.52;102379.97;5070207;28;20177;-67
2022/01/27 09:05:53;;;;;;;16.30;5.30;;;;;;;15.66;51.88;102385.03;5070544;28;20020;-67
2022/01/27 09:08:18;;;;;;;17.27;5.87;;;;;;;16.51;50.16;102370.28;5070906;28;20035;-67
2022/01/27 09:10:46;;;;;;;15.57;6.17;;;;;;;16.93;48.36;102363.66;5072070;28;20025;-67
2022/01/27 09:13:12;;;;;;;14.07;5.60;;;;;;;16.98;48.42;102365.38;5071296;28;20032;-67
2022/01/27 09:15:38;;;;;;;23.20;6.23;;;;;;;16.05;50.98;102375.09;5057353;28;20021;-68
2022/01/27 09:18:03;;;;;;;18.77;6.97;;;;;;;15.56;54.18;102373.66;5067233;28;20504;-68
2022/01/27 09:20:29;;;;;;;19.00;6.70;;;;;;;17.31;48.21;102364.06;5064299;28;20492;-68
2022/01/27 09:22:57;;;;;;;25.43;7.93;;;;;;;16.63;50.72;102354.31;5070933;28;20036;-68
2022/01/27 09:25:29;;;;;;;20.53;6.43;;;;;;;16.38;49.96;102356.34;5070035;28;20404;-68
2022/01/27 09:27:56;;;;;;;20.95;5.88;;;;;;;15.66;50.50;102361.31;5071243;28;20028;-68
2022/01/27 09:30:22;;;;;;;22.67;7.17;;;;;;;16.84;48.75;102352.31;5069899;28;20025;-68
2022/01/27 09:32:47;;;;;;;16.37;6.07;;;;;;;15.21;53.63;102360.72;5070000;28;20403;-67
2022/01/27 09:35:15;;;;;;;18.50;6.63;;;;;;;16.26;51.61;102357.34;5072197;28;20082;-68
2022/01/27 09:37:40;;;;;;;19.77;6.53;;;;;;;15.86;52.17;102370.88;5071014;28;20028;-67
2022/01/27 09:40:07;;;;;;;26.07;7.63;;;;;;;15.71;52.16;102364.78;5070046;28;20119;-68
2022/01/27 09:42:35;;;;;;;21.33;6.83;;;;;;;15.81;51.14;102362.97;5070069;28;20518;-67
2022/01/27 09:45:03;;;;;;;16.07;6.67;;;;;;;16.89;50.29;102371.66;5061633;28;20395;-67
2022/01/27 09:47:31;;;;;;;13.30;5.70;;;;;;;16.18;49.00;102362.66;5049512;28;20029;-68
2022/01/27 09:50:19;;;;;;;23.13;7.17;;;;;;;16.55;49.70;102385.19;5050715;28;20120;-68
2022/01/27 09:52:45;;;;;;;24.23;5.90;;;;;;;15.76;53.33;102376.16;5051183;28;20104;-67
2022/01/27 09:55:11;;;;;;;16.50;4.30;;;;;;;15.74;52.27;102377.06;5061204;28;20136;-68
2022/01/27 09:57:36;;;;;;;18.73;6.77;;;;;;;16.87;49.66;102363.72;5070553;28;20035;-68
2022/01/27 10:00:02;;;;;;;17.90;6.00;;;;;;;16.18;50.84;102372.34;5069679;28;20510;-68
2022/01/27 10:02:28;;;;;;;17.30;5.50;;;;;;;16.54;48.44;102375.50;5070185;28;20445;-68
2022/01/27 10:04:57;;;;;;;19.50;7.30;;;;;;;16.03;51.22;102374.25;5062516;28;20021;-68
2022/01/27 10:07:35;;;;;;;27.60;6.73;;;;;;;16.86;49.55;102361.97;5049237;28;20095;-68
2022/01/27 10:10:11;;;;;;;24.50;5.83;;;;;;;17.02;50.41;102370.63;5062272;28;20293;-68
2022/01/27 10:12:40;;;;;;;17.83;5.77;;;;;;;16.88;48.70;102373.38;5070161;28;20384;-68
2022/01/27 10:15:09;;;;;;;23.80;6.73;;;;;;;15.68;53.92;102383.25;5069034;28;20025;-68
2022/01/27 10:17:38;;;;;;;15.80;5.83;;;;;;;15.83;51.58;102381.44;5071635;28;20457;-68
2022/01/27 10:20:16;;;;;;;22.07;6.10;;;;;;;17.70;48.33;102379.38;5069738;28;20055;-68
2022/01/27 10:22:42;;;;;;;23.97;5.13;;;;;;;15.91;51.99;102385.75;5069285;28;20029;-68
2022/01/27 10:25:10;;;;;;;17.67;5.00;;;;;;;16.04;51.58;102378.63;5051406;28;20043;-68
2022/01/27 10:27:56;;;;;;;22.50;4.97;;;;;;;17.90;47.11;102377.28;5049641;28;20021;-68
2022/01/27 10:32:57;;;;;;;14.50;5.30;;;;;;;18.17;45.85;102371.56;5058840;28;20493;-68
2022/01/27 10:35:25;;;;;;;18.17;5.82;;;;;;;17.52;47.68;102386.66;5065410;28;20032;-68
2022/01/27 10:37:54;;;;;;;19.43;3.97;;;;;;;16.37;50.20;102387.13;5063520;28;20074;-68
2022/01/27 10:40:41;;;;;;;12.40;4.53;;;;;;;17.48;47.65;102397.31;5047572;28;20040;-67
2022/01/27 10:43:25;;;;;;;22.07;5.60;;;;;;;16.07;49.78;102391.81;5069544;28;20107;-68
2022/01/27 10:46:20;;;;;;;11.67;5.10;;;;;;;17.66;47.65;102391.75;5059516;28;20025;-68
2022/01/27 10:49:01;;;;;;;18.57;4.80;;;;;;;17.61;48.25;102383.00;5077180;28;20116;-68
2022/01/27 10:51:34;;;;;;;8.83;4.93;;;;;;;17.44;47.97;102386.75;5057593;28;20028;-67
2022/01/27 10:54:04;;;;;;;18.00;4.60;;;;;;;17.00;48.58;102376.81;5049314;28;20025;-67
2022/01/27 10:56:38;;;;;;;18.93;5.13;;;;;;;16.83;48.80;102376.97;5049361;28;20025;-67
2022/01/27 10:59:10;;;;;;;17.73;4.87;;;;;;;17.40;47.77;102385.06;5065986;28;20020;-67
2022/01/27 11:01:42;;;;;;;13.25;4.65;;;;;;;16.70;51.16;102397.34;5056756;28;20033;-67
2022/01/27 11:04:09;;;;;;;14.27;4.30;;;;;;;16.26;51.19;102386.34;5048089;28;20492;-67
2022/01/27 11:06:36;;;;;;;14.63;4.67;;;;;;;17.79;48.05;102390.66;5072185;28;20464;-67
2022/01/27 11:09:08;;;;;;;17.50;4.00;;;;;;;17.18;48.25;102394.19;5062210;28;20395;-67
2022/01/27 11:11:35;;;;;;;18.67;4.07;;;;;;;18.35;45.99;102381.81;5053815;28;20598;-67
2022/01/27 11:14:02;;;;;;;8.43;3.30;;;;;;;16.39;51.62;102388.00;5048704;28;20029;-67
2022/01/27 11:16:34;;;;;;;18.50;4.60;;;;;;;18.12;46.84;102375.19;5049921;28;20495;-67
2022/01/27 11:19:17;;;;;;;15.90;4.60;;;;;;;16.91;49.63;102370.75;5049559;28;20048;-67
2022/01/27 11:21:47;;;;;;;17.02;4.20;;;;;;;17.61;47.39;102377.72;5058574;28;20048;-67
2022/01/27 11:24:24;;;;;;;14.90;3.23;;;;;;;17.62;47.36;102374.19;5049201;28;20529;-67
2022/01/27 11:26:53;;;;;;;8.57;3.60;;;;;;;18.93;44.28;102363.09;5048777;28;20043;-67
2022/01/27 11:29:20;;;;;;;12.60;2.87;;;;;;;17.49;47.02;102372.59;5061905;28;20032;-67
2022/01/27 11:32:22;;;;;;;10.60;3.30;;;;;;;17.12;49.39;102368.72;5052915;28;20082;-67
2022/01/27 11:34:53;;;;;;;6.85;3.20;;;;;;;17.32;48.08;102375.50;5038504;28;20037;-67
2022/01/27 11:37:36;;;;;;;8.27;3.23;;;;;;;17.75;47.28;102369.56;5052439;28;20064;-67
2022/01/27 11:40:12;;;;;;;8.27;3.47;;;;;;;17.41;48.22;102381.53;5047905;28;20044;-67
2022/01/27 11:42:37;;;;;;;10.83;3.83;;;;;;;17.99;47.46;102363.06;5030329;28;20480;-68
2022/01/27 11:45:21;;;;;;;15.03;3.90;;;;;;;17.68;48.62;102367.94;5029858;28;20051;-67
2022/01/27 11:47:51;;;;;;;13.77;3.20;;;;;;;17.48;48.91;102370.88;5055023;28;20040;-67
2022/01/27 11:50:57;;;;;;;11.40;4.13;;;;;;;18.62;46.13;102371.63;5049267;28;20024;-67
2022/01/27 11:53:35;;;;;;;16.17;3.23;;;;;;;17.51;47.23;102376.97;5052072;28;20040;-67
2022/01/27 11:56:04;;;;;;;6.87;3.40;;;;;;;17.43;48.36;102371.81;5068264;28;20351;-67
2022/01/27 11:58:30;;;;;;;9.20;3.30;;;;;;;17.48;47.20;102377.03;5064319;28;20025;-67
2022/01/27 12:01:08;;;;;;;13.83;3.07;;;;;;;17.37;49.01;102374.53;5050886;28;20032;-68
2022/01/27 12:03:34;;;;;;;8.53;3.67;;;;;;;17.65;48.10;102368.84;5066267;28;20032;-68
2022/01/27 12:06:22;;;;;;;14.80;3.80;;;;;;;17.46;48.03;102379.72;5067991;28;20029;-67
2022/01/27 12:08:48;;;;;;;13.00;3.67;;;;;;;17.60;47.62;102390.06;5067894;28;20028;-67